createdAt,value
2024-02-09T00:01:15.640Z,99075.00
2024-02-09T00:03:42.949Z,99082.22
2024-02-09T00:06:09.676Z,99083.16
2024-02-09T00:08:38.476Z,99086.75
2024-02-09T00:11:08.687Z,99086.00
2024-02-09T00:13:35.455Z,99085.16
2024-02-09T00:16:06.020Z,99084.44
2024-02-09T00:18:32.927Z,99072.94
2024-02-09T00:20:59.699Z,99070.41
2024-02-09T00:23:26.384Z,99075.72
2024-02-09T00:25:53.186Z,99072.22
2024-02-09T00:28:20.063Z,99063.53
2024-02-09T00:30:46.829Z,99065.31
2024-02-09T00:33:13.711Z,99065.53
2024-02-09T00:35:43.700Z,99059.38
2024-02-09T00:38:11.172Z,99063.84
2024-02-09T00:40:38.225Z,99062.97
2024-02-09T00:43:05.213Z,99064.03
2024-02-09T00:45:34.994Z,99057.88
2024-02-09T00:48:01.850Z,99053.53
2024-02-09T00:50:32.066Z,99052.69
2024-02-09T00:53:11.919Z,99069.50
2024-02-09T00:55:39.056Z,99071.31
2024-02-09T00:58:05.829Z,99066.13
2024-02-09T01:00:33.226Z,99064.44
2024-02-09T01:03:00.641Z,99061.88
2024-02-09T01:05:27.352Z,99069.06
2024-02-09T01:07:54.013Z,99077.97
2024-02-09T01:10:20.722Z,99093.94
2024-02-09T01:13:06.187Z,99096.59
2024-02-09T01:15:51.726Z,99094.03
2024-02-09T01:18:37.406Z,99102.00
2024-02-09T01:21:22.736Z,99098.59
2024-02-09T01:24:08.295Z,99095.94
2024-02-09T01:26:53.435Z,99095.19
2024-02-09T01:29:38.463Z,99088.19
2024-02-09T01:32:23.637Z,99081.94
2024-02-09T01:35:11.218Z,99083.00
2024-02-09T01:37:56.529Z,99085.66
2024-02-09T01:40:41.723Z,99084.88
2024-02-09T01:43:27.065Z,99075.25
2024-02-09T01:46:12.778Z,99070.06
2024-02-09T01:49:01.242Z,99062.19
2024-02-09T01:51:47.155Z,99063.94
2024-02-09T01:54:32.512Z,99068.44
2024-02-09T01:57:17.814Z,99058.81
2024-02-09T02:00:06.076Z,99050.03
2024-02-09T02:02:51.390Z,99046.53
2024-02-09T02:05:36.669Z,99047.47
2024-02-09T02:08:21.956Z,99042.28
2024-02-09T02:11:07.421Z,99046.72
2024-02-09T02:13:53.094Z,99055.63
2024-02-09T02:16:38.732Z,99057.41
2024-02-09T02:19:24.165Z,99045.22
2024-02-09T02:22:18.697Z,99039.94
2024-02-09T02:25:04.449Z,99047.03
2024-02-09T02:27:58.938Z,99042.69
2024-02-09T02:30:44.402Z,99037.38
2024-02-09T02:33:29.958Z,99031.31
2024-02-09T02:36:15.589Z,99033.97
2024-02-09T02:39:00.758Z,99038.41
2024-02-09T02:41:27.352Z,99027.09
2024-02-09T02:43:54.015Z,99023.59
2024-02-09T02:46:20.861Z,99021.03
2024-02-09T02:49:06.723Z,99020.19
2024-02-09T02:51:52.544Z,99025.47
2024-02-09T02:54:37.881Z,99021.16
2024-02-09T02:57:23.568Z,99019.44
2024-02-09T03:00:13.020Z,99009.81
2024-02-09T03:02:58.693Z,99016.06
2024-02-09T03:05:26.533Z,99013.50
2024-02-09T03:08:43.328Z,99024.09
2024-02-09T03:10:44.486Z,99020.59
2024-02-09T03:13:11.214Z,99024.19
2024-02-09T03:15:37.927Z,99033.09
2024-02-09T03:18:06.355Z,99021.66
2024-02-09T03:20:33.248Z,99026.94
2024-02-09T03:23:06.153Z,99030.50
2024-02-09T03:25:32.883Z,99024.38
2024-02-09T03:27:59.568Z,99033.25
2024-02-09T03:30:28.125Z,99030.63
2024-02-09T03:32:55.072Z,99036.88
2024-02-09T03:35:24.132Z,99039.50
2024-02-09T03:37:50.860Z,99034.25
2024-02-09T03:40:17.703Z,99027.19
2024-02-09T03:42:44.584Z,99028.97
2024-02-09T03:45:11.272Z,99036.06
2024-02-09T03:47:38.026Z,99031.72
2024-02-09T03:50:06.008Z,99031.00
2024-02-09T03:52:33.039Z,99031.84
2024-02-09T03:54:59.993Z,99033.63
2024-02-09T03:57:28.080Z,99042.53
2024-02-09T03:59:55.011Z,99033.72
2024-02-09T04:02:23.000Z,99028.53
2024-02-09T04:04:49.862Z,99037.41
2024-02-09T04:07:23.055Z,99032.13
2024-02-09T04:10:15.092Z,99034.75
2024-02-09T04:12:36.866Z,99031.28
2024-02-09T04:15:03.796Z,99031.34
2024-02-09T04:17:30.567Z,99026.16
2024-02-09T04:19:58.332Z,99015.59
2024-02-09T04:22:25.334Z,99025.44
2024-02-09T04:24:52.114Z,99027.22
2024-02-09T04:27:21.512Z,99028.06
2024-02-09T04:29:48.128Z,99029.00
2024-02-09T04:32:14.769Z,99027.31
2024-02-09T04:34:41.625Z,99023.81
2024-02-09T04:37:08.447Z,99011.53
2024-02-09T04:39:35.232Z,99012.50
2024-02-09T04:42:01.989Z,99011.66
2024-02-09T04:44:28.681Z,99014.28
2024-02-09T04:46:55.459Z,99018.81
2024-02-09T04:49:26.273Z,99014.47
2024-02-09T04:51:53.016Z,99008.34
2024-02-09T04:54:19.714Z,99003.03
2024-02-09T04:56:46.551Z,99005.78
2024-02-09T04:59:13.448Z,99004.91
2024-02-09T05:01:41.389Z,99004.91
2024-02-09T05:04:12.766Z,99001.53
2024-02-09T05:06:39.697Z,98990.13
2024-02-09T05:09:08.266Z,98991.91
2024-02-09T05:11:37.716Z,98999.91
2024-02-09T05:14:07.801Z,98997.28
2024-02-09T05:16:35.367Z,99001.72
2024-02-09T05:19:04.973Z,99000.03
2024-02-09T05:21:37.533Z,98993.03
2024-02-09T05:24:04.957Z,98987.75
2024-02-09T05:26:31.706Z,98999.28
2024-02-09T05:28:58.383Z,98991.44
2024-02-09T05:31:25.253Z,98983.50
2024-02-09T05:33:52.505Z,98977.34
2024-02-09T05:36:28.670Z,98984.44
2024-02-09T05:38:58.411Z,98977.47
2024-02-09T05:41:27.579Z,98980.22
2024-02-09T05:43:58.320Z,98982.84
2024-02-09T05:46:26.680Z,98982.00
2024-02-09T05:48:53.712Z,98975.00
2024-02-09T05:51:20.634Z,98979.44
2024-02-09T05:53:50.181Z,98968.12
2024-02-09T05:56:27.269Z,98977.75
2024-02-09T05:58:54.226Z,98975.22
2024-02-09T06:01:21.842Z,98978.78
2024-02-09T06:03:48.726Z,98978.88
2024-02-09T06:06:22.423Z,98992.94
2024-02-09T06:08:50.280Z,98988.44
2024-02-09T06:11:17.511Z,98995.59
2024-02-09T06:13:47.411Z,98989.63
2024-02-09T06:16:14.859Z,99002.03
2024-02-09T06:18:44.184Z,99000.22
2024-02-09T06:21:10.877Z,99000.28
2024-02-09T06:23:40.643Z,99002.91
2024-02-09T06:26:08.827Z,99002.59
2024-02-09T06:28:35.476Z,99011.06
2024-02-09T06:31:02.591Z,99013.50
2024-02-09T06:33:29.338Z,99018.72
2024-02-09T06:35:59.838Z,99017.69
2024-02-09T06:38:26.559Z,99019.25
2024-02-09T06:40:54.934Z,99029.25
2024-02-09T06:43:22.555Z,99026.63
2024-02-09T06:45:51.365Z,99031.00
2024-02-09T06:48:18.076Z,99021.62
2024-02-09T06:50:45.627Z,99031.69
2024-02-09T06:53:12.402Z,99032.87
2024-02-09T06:55:39.127Z,99033.97
2024-02-09T06:58:05.951Z,99036.66
2024-02-09T07:00:36.865Z,99024.22
2024-02-09T07:03:04.567Z,99014.66
2024-02-09T07:05:31.766Z,99018.63
2024-02-09T07:07:58.594Z,99012.94
2024-02-09T07:10:25.242Z,99015.59
2024-02-09T07:12:55.000Z,99018.63
2024-02-09T07:15:21.927Z,99018.25
2024-02-09T07:17:49.222Z,99011.16
2024-02-09T07:20:18.592Z,99009.94
2024-02-09T07:22:45.635Z,99009.94
2024-02-09T07:25:12.457Z,99013.13
2024-02-09T07:27:42.377Z,99009.91
2024-02-09T07:30:09.686Z,99009.47
2024-02-09T07:32:36.404Z,99003.88
2024-02-09T07:35:03.459Z,99005.69
2024-02-09T07:37:33.122Z,99004.22
2024-02-09T07:40:00.873Z,99001.69
2024-02-09T07:42:27.536Z,99005.72
2024-02-09T07:44:54.215Z,98999.12
2024-02-09T07:47:21.682Z,99001.19
2024-02-09T07:49:48.442Z,99002.63
2024-02-09T07:52:18.041Z,98994.41
2024-02-09T07:54:44.804Z,98990.62
2024-02-09T07:57:11.994Z,98999.22
2024-02-09T08:02:23.436Z,98995.06
2024-02-09T08:05:01.418Z,98985.75
2024-02-09T08:07:28.202Z,98980.53
2024-02-09T08:09:57.264Z,98986.00
2024-02-09T08:12:25.031Z,98977.78
2024-02-09T08:14:51.781Z,98982.88
2024-02-09T08:17:19.494Z,98998.06
2024-02-09T08:19:46.435Z,98995.53
2024-02-09T08:22:13.156Z,98993.69
2024-02-09T08:24:40.079Z,98987.56
2024-02-09T08:27:06.807Z,98984.66
2024-02-09T08:29:33.954Z,98971.59
2024-02-09T08:32:00.674Z,98967.00
2024-02-09T08:34:27.553Z,98970.59
2024-02-09T08:36:54.634Z,98970.56
2024-02-09T08:39:21.285Z,98972.13
2024-02-09T08:41:47.938Z,98966.53
2024-02-09T08:44:14.574Z,98969.19
2024-02-09T08:46:41.313Z,98962.66
2024-02-09T08:49:08.176Z,98956.31
2024-02-09T08:51:34.905Z,98961.28
2024-02-09T08:54:01.549Z,98961.62
2024-02-09T08:56:28.350Z,98951.69
2024-02-09T08:58:55.099Z,98947.34
2024-02-09T09:01:22.083Z,98947.16
2024-02-09T09:03:48.960Z,98948.69
2024-02-09T09:06:15.824Z,98950.19
2024-02-09T09:08:43.341Z,98955.97
2024-02-09T09:11:10.204Z,98956.44
2024-02-09T09:13:36.823Z,98948.91
2024-02-09T09:16:03.462Z,98949.34
2024-02-09T09:18:30.486Z,98947.38
2024-02-09T09:20:57.395Z,98953.12
2024-02-09T09:23:24.032Z,98949.84
2024-02-09T09:25:50.937Z,98947.41
2024-02-09T09:28:19.749Z,98946.78
2024-02-09T09:30:47.317Z,98947.97
2024-02-09T09:33:14.111Z,98949.09
2024-02-09T09:35:42.084Z,98952.09
2024-02-09T09:38:08.860Z,98955.78
2024-02-09T09:40:36.447Z,98943.81
2024-02-09T09:43:03.259Z,98947.63
2024-02-09T09:45:30.641Z,98949.69
2024-02-09T09:47:58.149Z,98934.09
2024-02-09T09:50:26.046Z,98935.16
2024-02-09T09:52:54.382Z,98937.16
2024-02-09T09:55:23.873Z,98931.34
2024-02-09T09:57:50.710Z,98935.06
2024-02-09T10:00:18.436Z,98922.12
2024-02-09T10:02:45.070Z,98923.19
2024-02-09T10:05:12.617Z,98919.81
2024-02-09T10:07:43.378Z,98921.50
2024-02-09T10:10:15.004Z,98912.50
2024-02-09T10:12:41.781Z,98909.19
2024-02-09T10:15:08.962Z,98909.16
2024-02-09T10:17:38.093Z,98900.09
2024-02-09T10:20:06.021Z,98904.09
2024-02-09T10:22:32.751Z,98895.66
2024-02-09T10:24:59.989Z,98895.97
2024-02-09T10:27:26.637Z,98892.28
2024-02-09T10:29:53.276Z,98881.16
2024-02-09T10:32:19.986Z,98881.09
2024-02-09T10:34:49.678Z,98871.47
2024-02-09T10:37:21.794Z,98873.16
2024-02-09T10:39:57.758Z,98859.38
2024-02-09T10:42:24.746Z,98860.09
2024-02-09T10:44:56.883Z,98858.53
2024-02-09T10:47:27.358Z,98841.66
2024-02-09T10:49:57.025Z,98843.84
2024-02-09T10:52:27.983Z,98833.69
2024-02-09T10:54:57.860Z,98834.13
2024-02-09T10:57:28.266Z,98831.81
2024-02-09T10:59:54.922Z,98829.53
2024-02-09T11:02:21.580Z,98826.22
2024-02-09T11:04:48.606Z,98828.34
2024-02-09T11:07:17.244Z,98820.97
2024-02-09T11:09:46.903Z,98831.59
2024-02-09T11:12:14.606Z,98825.75
2024-02-09T11:14:45.744Z,98820.78
2024-02-09T11:17:14.520Z,98824.97
2024-02-09T11:19:41.905Z,98813.03
2024-02-09T11:22:09.478Z,98821.16
2024-02-09T11:24:36.452Z,98809.06
2024-02-09T11:27:03.938Z,98819.87
2024-02-09T11:29:33.549Z,98808.38
2024-02-09T11:32:06.868Z,98815.78
2024-02-09T11:34:36.277Z,98807.66
2024-02-09T11:37:03.636Z,98804.84
2024-02-09T11:39:35.063Z,98809.06
2024-02-09T11:42:07.686Z,98801.09
2024-02-09T11:44:34.335Z,98810.50
2024-02-09T11:47:02.671Z,98807.00
2024-02-09T11:49:33.439Z,98800.44
2024-02-09T11:52:04.050Z,98801.16
2024-02-09T11:54:31.041Z,98798.03
2024-02-09T11:57:01.421Z,98792.72
2024-02-09T11:59:33.254Z,98795.63
2024-02-09T12:01:59.992Z,98795.91
2024-02-09T12:04:27.123Z,98784.28
2024-02-09T12:06:54.051Z,98789.59
2024-02-09T12:09:21.315Z,98775.56
2024-02-09T12:11:48.342Z,98768.69
2024-02-09T12:14:15.343Z,98774.72
2024-02-09T12:16:42.154Z,98770.50
2024-02-09T12:19:09.293Z,98775.75
2024-02-09T12:21:36.138Z,98776.41
2024-02-09T12:24:02.767Z,98783.19
2024-02-09T12:26:30.350Z,98789.97
2024-02-09T12:28:57.320Z,98775.63
2024-02-09T12:31:24.195Z,98782.56
2024-02-09T12:33:51.685Z,98782.22
2024-02-09T12:36:22.967Z,98776.19
2024-02-09T12:38:56.866Z,98772.88
2024-02-09T12:41:23.860Z,98778.09
2024-02-09T12:44:04.308Z,98776.72
2024-02-09T12:46:31.724Z,98777.22
2024-02-09T12:48:58.713Z,98757.66
2024-02-09T12:51:25.766Z,98765.66
2024-02-09T12:53:53.016Z,98762.62
2024-02-09T12:56:20.350Z,98764.78
2024-02-09T12:58:48.376Z,98753.56
2024-02-09T13:01:15.637Z,98760.94
2024-02-09T13:03:44.916Z,98747.28
2024-02-09T13:06:15.136Z,98743.19
2024-02-09T13:08:42.154Z,98740.78
2024-02-09T13:11:08.862Z,98736.66
2024-02-09T13:13:39.383Z,98741.38
2024-02-09T13:16:07.668Z,98738.00
2024-02-09T13:18:34.439Z,98732.88
2024-02-09T13:21:03.490Z,98739.28
2024-02-09T13:23:30.373Z,98728.06
2024-02-09T13:26:00.347Z,98725.50
2024-02-09T13:28:31.517Z,98728.41
2024-02-09T13:30:58.976Z,98726.72
2024-02-09T13:33:25.892Z,98730.47
2024-02-09T13:35:52.568Z,98720.06
2024-02-09T13:38:19.387Z,98733.34
2024-02-09T13:40:46.892Z,98725.72
2024-02-09T13:43:13.613Z,98732.00
2024-02-09T13:45:41.809Z,98738.88
2024-02-09T13:48:11.214Z,98725.09
2024-02-09T13:50:38.701Z,98738.50
2024-02-09T13:53:06.153Z,98732.44
2024-02-09T13:55:34.550Z,98740.53
2024-02-09T13:58:02.010Z,98738.97
2024-02-09T14:00:28.911Z,98745.34
2024-02-09T14:02:55.726Z,98735.72
2024-02-09T14:05:23.871Z,98739.34
2024-02-09T14:07:52.344Z,98736.78
2024-02-09T14:10:19.779Z,98743.66
2024-02-09T14:12:47.190Z,98734.38
2024-02-09T14:15:14.732Z,98733.69
2024-02-09T14:17:41.816Z,98739.00
2024-02-09T14:20:09.215Z,98732.53
2024-02-09T14:22:36.367Z,98743.31
2024-02-09T14:25:03.877Z,98738.13
2024-02-09T14:27:30.756Z,98760.69
2024-02-09T14:29:59.499Z,98747.75
2024-02-09T14:32:26.788Z,98755.25
2024-02-09T14:34:53.721Z,98753.28
2024-02-09T14:37:23.723Z,98749.41
2024-02-09T14:39:50.553Z,98745.72
2024-02-09T14:42:17.264Z,98743.78
2024-02-09T14:44:49.635Z,98748.59
2024-02-09T14:47:20.468Z,98751.03
2024-02-09T14:49:49.778Z,98750.03
2024-02-09T14:52:17.325Z,98743.34
2024-02-09T14:54:44.249Z,98748.31
2024-02-09T14:57:12.050Z,98737.91
2024-02-09T14:59:38.735Z,98740.06
2024-02-09T15:02:05.526Z,98738.97
2024-02-09T15:04:36.229Z,98741.75
2024-02-09T15:07:05.013Z,98743.34
2024-02-09T15:09:31.777Z,98744.72
2024-02-09T15:12:02.894Z,98750.16
2024-02-09T15:14:31.986Z,98744.34
2024-02-09T15:17:04.234Z,98742.84
2024-02-09T15:19:32.726Z,98744.72
2024-02-09T15:21:59.691Z,98742.41
2024-02-09T15:24:26.429Z,98745.28
2024-02-09T15:26:53.075Z,98736.22
2024-02-09T15:29:26.423Z,98738.59
2024-02-09T15:31:55.475Z,98732.19
2024-02-09T15:34:23.764Z,98731.94
2024-02-09T15:36:51.300Z,98729.00
2024-02-09T15:39:18.212Z,98734.91
2024-02-09T15:41:45.483Z,98738.56
2024-02-09T15:44:12.684Z,98741.34
2024-02-09T15:46:39.754Z,98744.72
2024-02-09T15:49:07.010Z,98743.75
2024-02-09T15:51:35.850Z,98743.03
2024-02-09T15:54:03.103Z,98747.00
2024-02-09T15:56:37.164Z,98739.84
2024-02-09T15:59:04.383Z,98744.31
2024-02-09T16:01:40.596Z,98744.19
2024-02-09T16:04:08.201Z,98744.91
2024-02-09T16:06:35.639Z,98742.94
2024-02-09T16:09:02.452Z,98750.34
2024-02-09T16:11:32.479Z,98748.53
2024-02-09T16:14:00.838Z,98753.41
2024-02-09T16:16:30.005Z,98751.03
2024-02-09T16:18:57.350Z,98766.53
2024-02-09T16:21:25.888Z,98767.03
2024-02-09T16:23:52.807Z,98772.06
2024-02-09T16:26:19.881Z,98760.19
2024-02-09T16:28:46.978Z,98771.63
2024-02-09T16:31:17.127Z,98766.19
2024-02-09T16:33:45.374Z,98781.13
2024-02-09T16:36:12.552Z,98773.16
2024-02-09T16:38:39.338Z,98773.06
2024-02-09T16:41:06.758Z,98782.91
2024-02-09T16:43:33.504Z,98776.13
2024-02-09T16:46:00.986Z,98782.75
2024-02-09T16:48:29.580Z,98786.16
2024-02-09T16:50:58.266Z,98780.38
2024-02-09T16:53:26.410Z,98789.81
2024-02-09T16:55:53.376Z,98787.63
2024-02-09T16:58:21.286Z,98780.87
2024-02-09T17:00:48.502Z,98787.38
2024-02-09T17:03:16.091Z,98788.59
2024-02-09T17:05:42.957Z,98791.72
2024-02-09T17:08:14.391Z,98791.13
2024-02-09T17:10:41.103Z,98792.53
2024-02-09T17:13:07.829Z,98793.78
2024-02-09T17:15:35.155Z,98783.56
2024-02-09T17:18:01.886Z,98800.59
2024-02-09T17:20:29.164Z,98793.00
2024-02-09T17:22:56.663Z,98803.97
2024-02-09T17:25:24.534Z,98800.69
2024-02-09T17:27:51.231Z,98795.50
2024-02-09T17:30:17.937Z,98794.16
2024-02-09T17:32:44.694Z,98809.47
2024-02-09T17:35:11.430Z,98810.66
2024-02-09T17:37:38.154Z,98811.84
2024-02-09T17:40:05.328Z,98814.72
2024-02-09T17:42:35.380Z,98807.72
2024-02-09T17:45:03.491Z,98809.88
2024-02-09T17:47:30.185Z,98804.81
2024-02-09T17:49:57.531Z,98813.72
2024-02-09T17:52:24.225Z,98812.16
2024-02-09T17:54:50.875Z,98811.31
2024-02-09T17:57:17.509Z,98803.56
2024-02-09T17:59:44.170Z,98803.78
2024-02-09T18:02:10.910Z,98803.06
2024-02-09T18:04:38.879Z,98798.84
2024-02-09T18:07:05.695Z,98795.47
2024-02-09T18:09:32.381Z,98792.94
2024-02-09T18:11:59.013Z,98806.78
2024-02-09T18:14:25.671Z,98793.19
2024-02-09T18:16:53.162Z,98798.56
2024-02-09T18:19:21.679Z,98797.25
2024-02-09T18:21:48.997Z,98793.09
2024-02-09T18:24:16.721Z,98800.47
2024-02-09T18:27:18.927Z,98791.00
2024-02-09T18:29:45.629Z,98803.06
2024-02-09T18:32:13.813Z,98807.91
2024-02-09T18:34:41.043Z,98800.62
2024-02-09T18:37:08.125Z,98795.81
2024-02-09T18:39:36.951Z,98801.25
2024-02-09T18:42:03.724Z,98803.25
2024-02-09T18:44:30.735Z,98807.13
2024-02-09T18:46:57.867Z,98804.94
2024-02-09T18:49:27.130Z,98803.72
2024-02-09T18:52:05.940Z,98794.06
2024-02-09T18:54:32.688Z,98801.75
2024-02-09T18:56:59.349Z,98804.19
2024-02-09T18:59:25.983Z,98814.81
2024-02-09T19:01:53.247Z,98816.50
2024-02-09T19:04:19.982Z,98821.69
2024-02-09T19:06:46.858Z,98814.69
2024-02-09T19:09:14.207Z,98811.91
2024-02-09T19:11:40.867Z,98818.94
2024-02-09T19:14:10.399Z,98816.50
2024-02-09T19:16:37.759Z,98810.47
2024-02-09T19:19:05.380Z,98810.84
2024-02-09T19:21:32.150Z,98813.16
2024-02-09T19:23:58.973Z,98814.38
2024-02-09T19:26:25.597Z,98806.28
2024-02-09T19:28:53.120Z,98816.59
2024-02-09T19:31:20.246Z,98813.97
2024-02-09T19:33:48.970Z,98801.47
2024-02-09T19:36:21.524Z,98803.31
2024-02-09T19:38:48.584Z,98813.00
2024-02-09T19:41:18.725Z,98807.56
2024-02-09T19:43:46.018Z,98810.94
2024-02-09T19:46:12.814Z,98798.97
2024-02-09T19:48:41.410Z,98793.28
2024-02-09T19:51:10.984Z,98792.81
2024-02-09T19:53:37.697Z,98795.94
2024-02-09T19:56:04.748Z,98800.78
2024-02-09T19:58:31.853Z,98807.13
2024-02-09T20:00:59.074Z,98815.56
2024-02-09T20:03:26.466Z,98805.16
2024-02-09T20:05:54.757Z,98806.47
2024-02-09T20:08:21.769Z,98815.53
2024-02-09T20:10:49.485Z,98814.31
2024-02-09T20:13:18.300Z,98815.50
2024-02-09T20:15:45.395Z,98814.16
2024-02-09T20:18:12.237Z,98811.72
2024-02-09T20:20:39.663Z,98805.91
2024-02-09T20:23:06.522Z,98809.66
2024-02-09T20:25:33.377Z,98803.59
2024-02-09T20:28:00.194Z,98806.72
2024-02-09T20:30:26.898Z,98800.94
2024-02-09T20:32:57.842Z,98800.22
2024-02-09T20:35:25.995Z,98797.91
2024-02-09T20:37:52.970Z,98803.28
2024-02-09T20:40:19.913Z,98807.88
2024-02-09T20:42:46.787Z,98803.53
2024-02-09T20:45:13.590Z,98809.06
2024-02-09T20:47:44.289Z,98817.16
2024-02-09T20:50:16.727Z,98814.66
2024-02-09T20:52:50.865Z,98816.59
2024-02-09T20:55:21.462Z,98807.06
2024-02-09T20:57:49.997Z,98812.56
2024-02-09T21:00:22.071Z,98805.81
2024-02-09T21:02:53.460Z,98815.69
2024-02-09T21:05:21.306Z,98813.28
2024-02-09T21:07:49.004Z,98810.00
2024-02-09T21:10:17.201Z,98816.34
2024-02-09T21:12:47.731Z,98804.06
2024-02-09T21:15:14.749Z,98820.19
2024-02-09T21:17:41.581Z,98806.19
2024-02-09T21:20:13.461Z,98809.91
2024-02-09T21:22:40.358Z,98812.69
2024-02-09T21:25:07.893Z,98817.25
2024-02-09T21:27:34.768Z,98820.00
2024-02-09T21:30:08.223Z,98819.28
2024-02-09T21:32:36.634Z,98810.56
2024-02-09T21:35:06.667Z,98812.50
2024-02-09T21:37:34.376Z,98814.44
2024-02-09T21:40:01.015Z,98811.03
2024-02-09T21:42:30.807Z,98808.59
2024-02-09T21:45:00.366Z,98814.00
2024-02-09T21:47:30.144Z,98815.94
2024-02-09T21:49:58.591Z,98819.63
2024-02-09T21:52:25.376Z,98825.88
2024-02-09T21:54:52.965Z,98826.09
2024-02-09T21:57:22.343Z,98827.19
2024-02-09T21:59:49.024Z,98826.41
2024-02-09T22:02:20.822Z,98822.09
2024-02-09T22:04:47.944Z,98818.72
2024-02-09T22:07:14.737Z,98824.09
2024-02-09T22:09:41.739Z,98819.87
2024-02-09T22:12:08.638Z,98820.00
2024-02-09T22:14:36.823Z,98809.59
2024-02-09T22:17:07.524Z,98815.09
2024-02-09T22:19:35.509Z,98821.34
2024-02-09T22:22:02.926Z,98821.44
2024-02-09T22:24:29.776Z,98826.00
2024-02-09T22:26:57.524Z,98822.63
2024-02-09T22:29:28.305Z,98825.38
2024-02-09T22:31:55.037Z,98822.81
2024-02-09T22:34:23.327Z,98819.44
2024-02-09T22:36:51.710Z,98829.19
2024-02-09T22:39:21.696Z,98819.66
2024-02-09T22:41:51.724Z,98823.25
2024-02-09T22:44:20.329Z,98825.19
2024-02-09T22:46:47.901Z,98830.69
2024-02-09T22:49:17.581Z,98832.56
2024-02-09T22:51:44.259Z,98828.22
2024-02-09T22:54:10.905Z,98830.16
2024-02-09T22:56:40.723Z,98831.09
2024-02-09T22:59:07.491Z,98825.06
2024-02-09T23:01:34.227Z,98816.47
2024-02-09T23:04:01.359Z,98814.78
2024-02-09T23:06:31.789Z,98811.41
2024-02-09T23:08:59.138Z,98811.50
2024-02-09T23:11:27.366Z,98815.00
2024-02-09T23:13:56.451Z,98806.31
2024-02-09T23:16:24.382Z,98809.06
2024-02-09T23:18:57.164Z,98797.72
2024-02-09T23:21:24.478Z,98803.97
2024-02-09T23:23:51.195Z,98809.38
2024-02-09T23:26:18.043Z,98799.84
2024-02-09T23:28:44.899Z,98804.28
2024-02-09T23:31:11.650Z,98805.37
2024-02-09T23:33:38.406Z,98801.97
2024-02-09T23:36:05.388Z,98796.66
2024-02-09T23:38:32.007Z,98793.28
2024-02-09T23:40:58.805Z,98788.94
2024-02-09T23:43:25.557Z,98787.22
2024-02-09T23:45:54.442Z,98788.19
2024-02-09T23:48:24.144Z,98784.81
2024-02-09T23:50:52.182Z,98781.31
2024-02-09T23:53:19.366Z,98772.63
2024-02-09T23:55:46.151Z,98778.03
2024-02-09T23:58:13.009Z,98779.84
